createdAt,value
2022-12-13T00:00:21.263Z,-4.23
2022-12-13T00:01:18.239Z,-4.27
2022-12-13T00:02:20.503Z,-4.27
2022-12-13T00:03:18.233Z,-4.35
2022-12-13T00:04:18.688Z,-4.4
2022-12-13T00:05:19.170Z,-4.4
2022-12-13T00:06:18.265Z,-4.4
2022-12-13T00:07:18.257Z,-4.42
2022-12-13T00:08:18.396Z,-4.53
2022-12-13T00:09:18.254Z,-4.42
2022-12-13T00:10:18.267Z,-4.45
2022-12-13T00:11:21.378Z,-4.42
2022-12-13T00:12:18.291Z,-4.33
2022-12-13T00:13:18.258Z,-4.35
2022-12-13T00:14:18.272Z,-4.27
2022-12-13T00:15:19.081Z,-4.27
2022-12-13T00:16:21.237Z,-4.34
2022-12-13T00:17:19.385Z,-4.42
2022-12-13T00:18:19.319Z,-4.4
2022-12-13T00:19:18.263Z,-4.4
2022-12-13T00:20:18.330Z,-4.42
2022-12-13T00:21:18.272Z,-4.35
2022-12-13T00:22:21.362Z,-4.42
2022-12-13T00:23:18.306Z,-4.33
2022-12-13T00:24:18.306Z,-4.42
2022-12-13T00:25:19.053Z,-4.49
2022-12-13T00:26:18.279Z,-4.42
2022-12-13T00:27:20.241Z,-4.47
2022-12-13T00:28:18.275Z,-4.45
2022-12-13T00:29:18.419Z,-4.49
2022-12-13T00:30:18.309Z,-4.61
2022-12-13T00:32:03.306Z,-4.61
2022-12-13T00:32:18.464Z,-4.69
2022-12-13T00:33:20.729Z,-4.61
2022-12-13T00:34:18.301Z,-4.56
2022-12-13T00:35:20.114Z,-4.53
2022-12-13T00:36:18.317Z,-4.56
2022-12-13T00:37:18.316Z,-4.51
2022-12-13T00:38:24.091Z,-4.47
2022-12-13T00:39:18.332Z,-4.56
2022-12-13T00:40:21.049Z,-4.59
2022-12-13T00:41:18.312Z,-4.55
2022-12-13T00:42:18.333Z,-4.62
2022-12-13T00:43:18.304Z,-4.59
2022-12-13T00:44:18.323Z,-4.61
2022-12-13T00:45:18.986Z,-4.69
2022-12-13T00:46:18.460Z,-4.7
2022-12-13T00:47:18.341Z,-4.67
2022-12-13T00:48:18.342Z,-4.69
2022-12-13T00:49:21.384Z,-4.71
2022-12-13T00:50:18.308Z,-4.65
2022-12-13T00:51:18.316Z,-4.7
2022-12-13T00:52:18.349Z,-4.65
2022-12-13T00:53:18.308Z,-4.71
2022-12-13T00:54:18.309Z,-4.7
2022-12-13T00:55:19.224Z,-4.76
2022-12-13T00:56:18.382Z,-4.76
2022-12-13T00:57:18.348Z,-4.81
2022-12-13T00:58:18.329Z,-4.74
2022-12-13T00:59:18.320Z,-4.7
2022-12-13T01:00:21.195Z,-4.73
2022-12-13T01:01:18.460Z,-4.69
2022-12-13T01:02:18.364Z,-4.59
2022-12-13T01:03:18.508Z,-4.67
2022-12-13T01:04:18.338Z,-4.67
2022-12-13T01:06:13.493Z,-4.56
2022-12-13T01:06:24.126Z,-4.65
2022-12-13T01:07:24.157Z,-4.7
2022-12-13T01:08:24.324Z,-4.61
2022-12-13T01:09:24.109Z,-4.61
2022-12-13T01:10:26.966Z,-4.71
2022-12-13T01:11:26.976Z,-4.71
2022-12-13T01:12:24.116Z,-4.67
2022-12-13T01:13:24.110Z,-4.61
2022-12-13T01:14:24.113Z,-4.73
2022-12-13T01:15:24.109Z,-4.53
2022-12-13T01:16:27.294Z,-4.74
2022-12-13T01:17:25.516Z,-4.71
2022-12-13T01:18:24.116Z,-4.67
2022-12-13T01:19:24.100Z,-4.62
2022-12-13T01:20:24.149Z,-4.7
2022-12-13T01:21:24.684Z,-4.77
2022-12-13T01:22:24.020Z,-4.71
2022-12-13T01:23:24.176Z,-4.69
2022-12-13T01:24:24.103Z,-4.74
2022-12-13T01:25:24.129Z,-4.83
2022-12-13T01:26:24.153Z,-4.83
2022-12-13T01:27:28.127Z,-4.71
2022-12-13T01:28:24.133Z,-4.71
2022-12-13T01:29:24.139Z,-4.84
2022-12-13T01:30:24.126Z,-4.74
2022-12-13T01:31:24.462Z,-4.88
2022-12-13T01:32:24.235Z,-4.88
2022-12-13T01:33:24.128Z,-5
2022-12-13T01:34:29.124Z,-5.02
2022-12-13T01:35:27.031Z,-4.95
2022-12-13T01:36:31.651Z,-4.98
2022-12-13T01:37:30.465Z,-4.97
2022-12-13T01:38:31.212Z,-4.97
2022-12-13T01:39:30.885Z,-5.01
2022-12-13T01:40:31.137Z,-4.97
2022-12-13T01:41:29.758Z,-4.98
2022-12-13T01:42:24.170Z,-4.95
2022-12-13T01:43:25.201Z,-4.84
2022-12-13T01:44:24.158Z,-4.91
2022-12-13T01:45:24.149Z,-4.92
2022-12-13T01:46:27.288Z,-5.06
2022-12-13T01:47:24.227Z,-4.98
2022-12-13T01:48:24.164Z,-5
2022-12-13T01:49:27.371Z,-4.97
2022-12-13T01:50:24.173Z,-4.9
2022-12-13T01:51:24.157Z,-4.95
2022-12-13T01:52:27.049Z,-4.95
2022-12-13T01:53:24.171Z,-4.84
2022-12-13T01:54:35.910Z,-4.87
2022-12-13T01:55:24.560Z,-4.81
2022-12-13T01:56:24.170Z,-4.83
2022-12-13T01:57:24.178Z,-4.8
2022-12-13T01:58:24.221Z,-4.9
2022-12-13T01:59:24.192Z,-4.79
2022-12-13T02:00:27.041Z,-4.9
2022-12-13T02:01:24.381Z,-4.92
2022-12-13T02:02:24.195Z,-4.87
2022-12-13T02:03:26.247Z,-4.91
2022-12-13T02:04:24.188Z,-4.88
2022-12-13T02:05:24.608Z,-4.95
2022-12-13T02:06:24.192Z,-5.01
2022-12-13T02:07:28.137Z,-5.02
2022-12-13T02:08:24.714Z,-5.05
2022-12-13T02:09:24.192Z,-5.13
2022-12-13T02:10:24.275Z,-5.08
2022-12-13T02:11:27.263Z,-5.06
2022-12-13T02:12:31.744Z,-5.02
2022-12-13T02:13:24.207Z,-5.09
2022-12-13T02:14:24.197Z,-5.05
2022-12-13T02:15:24.384Z,-5.1
2022-12-13T02:16:27.185Z,-5.09
2022-12-13T02:17:24.339Z,-5
2022-12-13T02:18:24.193Z,-5.08
2022-12-13T02:19:24.196Z,-5.17
2022-12-13T02:20:26.926Z,-5.17
2022-12-13T02:21:24.211Z,-5.12
2022-12-13T02:22:27.980Z,-5.09
2022-12-13T02:23:24.271Z,-5.05
2022-12-13T02:24:24.225Z,-5.09
2022-12-13T02:25:31.550Z,-5.16
2022-12-13T02:26:24.295Z,-5.19
2022-12-13T02:27:35.274Z,-5.25
2022-12-13T02:28:35.273Z,-5.21
2022-12-13T02:29:36.083Z,-5.27
2022-12-13T02:30:24.242Z,-5.27
2022-12-13T02:31:24.431Z,-5.09
2022-12-13T02:32:24.212Z,-5.1
2022-12-13T02:33:29.654Z,-5.31
2022-12-13T02:34:24.211Z,-5.38
2022-12-13T02:35:24.255Z,-5.28
2022-12-13T02:36:24.221Z,-5.2
2022-12-13T02:37:24.275Z,-5.3
2022-12-13T02:38:29.308Z,-5.32
2022-12-13T02:39:35.581Z,-5.32
2022-12-13T02:40:24.266Z,-5.27
2022-12-13T02:41:24.251Z,-5.28
2022-12-13T02:42:26.623Z,-5.2
2022-12-13T02:43:26.219Z,-5.34
2022-12-13T02:44:30.107Z,-5.32
2022-12-13T02:45:26.583Z,-5.3
2022-12-13T02:46:24.362Z,-5.34
2022-12-13T02:47:27.256Z,-5.27
2022-12-13T02:48:24.270Z,-5.3
2022-12-13T02:49:27.359Z,-5.21
2022-12-13T02:50:24.276Z,-5.3
2022-12-13T02:51:24.277Z,-5.23
2022-12-13T02:52:27.320Z,-5.2
2022-12-13T02:53:24.298Z,-5.2
2022-12-13T02:54:24.241Z,-5.2
2022-12-13T02:55:32.415Z,-5.32
2022-12-13T02:56:24.290Z,-5.32
2022-12-13T02:57:26.442Z,-5.37
2022-12-13T02:58:24.313Z,-5.39
2022-12-13T02:59:24.267Z,-5.3
2022-12-13T03:00:27.358Z,-5.41
2022-12-13T03:01:44.599Z,-5.32
2022-12-13T03:02:36.267Z,-5.3
2022-12-13T03:03:24.718Z,-5.28
2022-12-13T03:04:30.643Z,-5.34
2022-12-13T03:05:24.258Z,-5.35
2022-12-13T03:06:25.277Z,-5.31
2022-12-13T03:07:24.296Z,-5.27
2022-12-13T03:08:24.655Z,-5.38
2022-12-13T03:09:24.288Z,-5.32
2022-12-13T03:10:24.280Z,-5.35
2022-12-13T03:11:27.388Z,-5.38
2022-12-13T03:12:24.268Z,-5.34
2022-12-13T03:13:24.329Z,-5.23
2022-12-13T03:14:24.309Z,-5.5
2022-12-13T03:15:24.295Z,-5.43
2022-12-13T03:16:27.858Z,-5.34
2022-12-13T03:17:24.312Z,-5.37
2022-12-13T03:18:24.340Z,-5.45
2022-12-13T03:19:24.291Z,-5.45
2022-12-13T03:20:27.681Z,-5.53
2022-12-13T03:21:24.297Z,-5.45
2022-12-13T03:22:24.321Z,-5.5
2022-12-13T03:23:24.315Z,-5.59
2022-12-13T03:24:24.305Z,-5.49
2022-12-13T03:25:37.005Z,-5.52
2022-12-13T03:26:24.302Z,-5.52
2022-12-13T03:27:24.327Z,-5.64
2022-12-13T03:28:24.426Z,-5.6
2022-12-13T03:29:28.747Z,-5.5
2022-12-13T03:30:24.305Z,-5.53
2022-12-13T03:31:24.526Z,-5.52
2022-12-13T03:32:24.322Z,-5.52
2022-12-13T03:33:24.340Z,-5.48
2022-12-13T03:34:48.599Z,-5.5
2022-12-13T03:35:47.750Z,-5.46
2022-12-13T03:36:29.698Z,-5.48
2022-12-13T03:37:29.702Z,-5.56
2022-12-13T03:38:33.307Z,-5.53
2022-12-13T03:39:29.703Z,-5.53
2022-12-13T03:40:29.703Z,-5.56
2022-12-13T03:41:29.698Z,-5.55
2022-12-13T03:42:29.738Z,-5.59
2022-12-13T03:43:29.741Z,-5.73
2022-12-13T03:44:37.870Z,-5.64
2022-12-13T03:45:29.707Z,-5.58
2022-12-13T03:46:29.857Z,-5.66
2022-12-13T03:47:29.722Z,-5.82
2022-12-13T03:48:29.753Z,-5.87
2022-12-13T03:49:40.361Z,-5.68
2022-12-13T03:50:31.756Z,-5.66
2022-12-13T03:51:29.721Z,-5.67
2022-12-13T03:52:29.717Z,-5.63
2022-12-13T03:53:38.743Z,-5.67
2022-12-13T03:54:29.713Z,-5.64
2022-12-13T03:55:29.738Z,-5.58
2022-12-13T03:56:30.760Z,-5.59
2022-12-13T03:57:30.766Z,-5.58
2022-12-13T03:58:39.186Z,-5.55
2022-12-13T03:59:29.731Z,-5.56
2022-12-13T04:00:32.803Z,-5.59
2022-12-13T04:01:29.968Z,-5.59
2022-12-13T04:02:36.383Z,-5.71
2022-12-13T04:03:29.869Z,-5.7
2022-12-13T04:04:29.866Z,-5.66
2022-12-13T04:05:29.737Z,-5.53
2022-12-13T04:06:38.910Z,-5.68
2022-12-13T04:07:38.791Z,-5.68
2022-12-13T04:08:29.993Z,-5.67
2022-12-13T04:09:29.766Z,-5.73
2022-12-13T04:10:31.450Z,-5.7
2022-12-13T04:11:32.578Z,-5.84
2022-12-13T04:12:29.740Z,-5.73
2022-12-13T04:13:29.756Z,-5.81
2022-12-13T04:14:29.864Z,-5.77
2022-12-13T04:15:29.911Z,-5.87
2022-12-13T04:16:29.980Z,-5.84
2022-12-13T04:17:29.757Z,-5.92
2022-12-13T04:18:29.780Z,-5.89
2022-12-13T04:19:29.801Z,-5.91
2022-12-13T04:20:29.756Z,-5.87
2022-12-13T04:21:30.297Z,-6.02
2022-12-13T04:22:32.838Z,-5.77
2022-12-13T04:23:29.789Z,-5.87
2022-12-13T04:24:35.901Z,-5.91
2022-12-13T04:25:29.777Z,-5.92
2022-12-13T04:26:29.774Z,-5.87
2022-12-13T04:27:29.757Z,-5.92
2022-12-13T04:28:29.796Z,-5.89
2022-12-13T04:29:36.945Z,-5.84
2022-12-13T04:30:29.792Z,-5.92
2022-12-13T04:31:29.959Z,-5.88
2022-12-13T04:32:31.858Z,-5.89
2022-12-13T04:33:32.934Z,-5.94
2022-12-13T04:34:41.923Z,-5.92
2022-12-13T04:35:29.792Z,-6
2022-12-13T04:36:36.932Z,-5.97
2022-12-13T04:37:29.783Z,-5.97
2022-12-13T04:38:29.831Z,-5.97
2022-12-13T04:39:40.212Z,-5.95
2022-12-13T04:40:29.778Z,-5.99
2022-12-13T04:41:38.572Z,-5.97
2022-12-13T04:42:29.796Z,-5.89
2022-12-13T04:43:29.804Z,-5.92
2022-12-13T04:44:41.181Z,-6.09
2022-12-13T04:45:30.031Z,-6.09
2022-12-13T04:46:32.785Z,-6.06
2022-12-13T04:47:29.806Z,-6.03
2022-12-13T04:48:35.998Z,-6.05
2022-12-13T04:49:29.830Z,-5.88
2022-12-13T04:50:29.824Z,-5.94
2022-12-13T04:51:32.878Z,-6.02
2022-12-13T04:52:29.821Z,-6.1
2022-12-13T04:53:29.830Z,-6.09
2022-12-13T04:54:38.027Z,-6.12
2022-12-13T04:55:32.648Z,-6.07
2022-12-13T04:56:29.809Z,-6.02
2022-12-13T04:57:29.816Z,-6.02
2022-12-13T04:58:29.823Z,-6.07
2022-12-13T04:59:29.844Z,-6.03
2022-12-13T05:00:29.823Z,-6.02
2022-12-13T05:01:29.980Z,-6.07
2022-12-13T05:02:30.019Z,-6.12
2022-12-13T05:03:29.903Z,-6.07
2022-12-13T05:04:36.769Z,-6
2022-12-13T05:05:29.837Z,-6.06
2022-12-13T05:06:35.105Z,-6.06
2022-12-13T05:07:29.827Z,-6.05
2022-12-13T05:08:30.026Z,-6.15
2022-12-13T05:09:29.962Z,-6.06
2022-12-13T05:10:40.714Z,-6.02
2022-12-13T05:11:48.156Z,-6.09
2022-12-13T05:12:29.845Z,-6.06
2022-12-13T05:13:29.842Z,-6.15
2022-12-13T05:14:30.063Z,-6
2022-12-13T05:15:29.863Z,-6.02
2022-12-13T05:16:30.008Z,-6.07
2022-12-13T05:17:32.721Z,-6.06
2022-12-13T05:18:29.878Z,-6.07
2022-12-13T05:19:35.514Z,-6.18
2022-12-13T05:20:29.873Z,-6.2
2022-12-13T05:21:29.850Z,-6.18
2022-12-13T05:22:32.897Z,-6.21
2022-12-13T05:23:29.854Z,-6.21
2022-12-13T05:24:29.897Z,-6.2
2022-12-13T05:25:29.907Z,-6.21
2022-12-13T05:26:29.895Z,-6.23
2022-12-13T05:27:31.586Z,-6.27
2022-12-13T05:28:33.351Z,-6.2
2022-12-13T05:29:30.388Z,-6.23
2022-12-13T05:30:29.869Z,-6.16
2022-12-13T05:31:29.963Z,-6.21
2022-12-13T05:32:29.883Z,-6.27
2022-12-13T05:33:29.879Z,-6.16
2022-12-13T05:34:29.921Z,-6.18
2022-12-13T05:35:29.881Z,-6.21
2022-12-13T05:36:29.910Z,-6.21
2022-12-13T05:37:37.169Z,-6.31
2022-12-13T05:38:29.888Z,-6.3
2022-12-13T05:39:33.699Z,-6.24
2022-12-13T05:40:29.903Z,-6.28
2022-12-13T05:41:29.877Z,-6.27
2022-12-13T05:42:29.908Z,-6.27
2022-12-13T05:43:47.632Z,-6.27
2022-12-13T05:44:29.916Z,-6.26
2022-12-13T05:45:29.904Z,-6.2
2022-12-13T05:46:29.931Z,-6.27
2022-12-13T05:47:29.894Z,-6.3
2022-12-13T05:48:29.894Z,-6.18
2022-12-13T05:49:32.745Z,-6.33
2022-12-13T05:50:29.921Z,-6.2
2022-12-13T05:51:29.910Z,-6.24
2022-12-13T05:52:35.918Z,-6.23
2022-12-13T05:53:35.343Z,-6.21
2022-12-13T05:54:29.951Z,-6.21
2022-12-13T05:55:29.917Z,-6.13
2022-12-13T05:56:29.920Z,-6.24
2022-12-13T05:57:29.926Z,-6.27
2022-12-13T05:58:37.810Z,-6.24
2022-12-13T05:59:29.958Z,-6.23
2022-12-13T06:00:38.191Z,-6.15
2022-12-13T06:01:29.729Z,-6.18
2022-12-13T06:02:30.404Z,-6.2
2022-12-13T06:03:30.274Z,-6.16
2022-12-13T06:04:30.032Z,-6.23
2022-12-13T06:05:32.829Z,-6.1
2022-12-13T06:06:29.961Z,-6.23
2022-12-13T06:07:38.794Z,-6.24
2022-12-13T06:08:30.502Z,-6.3
2022-12-13T06:09:29.960Z,-6.26
2022-12-13T06:10:38.960Z,-6.26
2022-12-13T06:11:45.551Z,-6.34
2022-12-13T06:12:46.270Z,-6.33
2022-12-13T06:13:44.516Z,-6.49
2022-12-13T06:14:36.529Z,-6.58
2022-12-13T06:15:47.100Z,-6.52
2022-12-13T06:16:36.691Z,-6.48
2022-12-13T06:17:39.300Z,-6.6
2022-12-13T06:18:36.508Z,-6.44
2022-12-13T06:19:36.530Z,-6.48
2022-12-13T06:20:36.509Z,-6.56
2022-12-13T06:21:49.080Z,-6.48
2022-12-13T06:22:40.525Z,-6.48
2022-12-13T06:23:36.698Z,-6.44
2022-12-13T06:24:36.532Z,-6.44
2022-12-13T06:25:36.886Z,-6.44
2022-12-13T06:26:36.526Z,-6.34
2022-12-13T06:27:38.403Z,-6.34
2022-12-13T06:28:39.596Z,-6.28
2022-12-13T06:29:36.573Z,-6.28
2022-12-13T06:30:36.775Z,-6.45
2022-12-13T06:31:36.516Z,-6.3
2022-12-13T06:32:40.001Z,-6.31
2022-12-13T06:33:39.380Z,-6.3
2022-12-13T06:34:36.567Z,-6.42
2022-12-13T06:35:43.686Z,-6.27
2022-12-13T06:36:36.519Z,-6.33
2022-12-13T06:37:36.564Z,-6.39
2022-12-13T06:38:45.746Z,-6.31
2022-12-13T06:39:41.012Z,-6.45
2022-12-13T06:40:36.536Z,-6.46
2022-12-13T06:41:37.016Z,-6.3
2022-12-13T06:42:36.552Z,-6.3
2022-12-13T06:43:37.911Z,-6.27
2022-12-13T06:44:39.763Z,-6.26
2022-12-13T06:45:36.549Z,-6.21
2022-12-13T06:46:36.724Z,-6.28
2022-12-13T06:47:37.249Z,-6.28
2022-12-13T06:48:36.553Z,-6.31
2022-12-13T06:49:36.922Z,-6.28
2022-12-13T06:50:36.546Z,-6.36
2022-12-13T06:51:37.459Z,-6.38
2022-12-13T06:52:36.547Z,-6.34
2022-12-13T06:53:36.681Z,-6.26
2022-12-13T06:54:36.580Z,-6.23
2022-12-13T06:55:39.344Z,-6.18
2022-12-13T06:56:36.569Z,-6.24
2022-12-13T06:57:36.589Z,-6.23
2022-12-13T06:58:36.581Z,-6.23
2022-12-13T06:59:36.589Z,-6.21
2022-12-13T07:00:51.230Z,-6.3
2022-12-13T07:01:52.969Z,-6.24
2022-12-13T07:02:37.103Z,-6.3
2022-12-13T07:03:36.768Z,-6.27
2022-12-13T07:04:36.616Z,-6.39
2022-12-13T07:05:36.570Z,-6.28
2022-12-13T07:06:39.571Z,-6.3
2022-12-13T07:07:36.586Z,-6.42
2022-12-13T07:08:36.771Z,-6.44
2022-12-13T07:09:36.969Z,-6.34
2022-12-13T07:10:36.593Z,-6.39
2022-12-13T07:11:36.597Z,-6.36
2022-12-13T07:12:36.597Z,-6.3
2022-12-13T07:13:36.631Z,-6.3
2022-12-13T07:14:45.064Z,-6.21
2022-12-13T07:15:36.811Z,-6.3
2022-12-13T07:16:36.601Z,-6.24
2022-12-13T07:17:40.870Z,-6.24
2022-12-13T07:18:36.415Z,-6.15
2022-12-13T07:19:40.380Z,-6.18
2022-12-13T07:20:36.609Z,-6.18
2022-12-13T07:21:36.598Z,-6.33
2022-12-13T07:22:49.311Z,-6.34
2022-12-13T07:23:36.605Z,-6.31
2022-12-13T07:24:36.647Z,-6.27
2022-12-13T07:25:36.642Z,-6.21
2022-12-13T07:26:36.615Z,-6.27
2022-12-13T07:27:36.671Z,-6.28
2022-12-13T07:28:39.459Z,-6.16
2022-12-13T07:29:36.615Z,-6.23
2022-12-13T07:30:43.974Z,-6.38
2022-12-13T07:31:36.788Z,-6.28
2022-12-13T07:32:36.633Z,-6.33
2022-12-13T07:33:36.610Z,-6.24
2022-12-13T07:34:38.324Z,-6.21
2022-12-13T07:35:41.681Z,-6.24
2022-12-13T07:36:36.613Z,-6.26
2022-12-13T07:37:36.629Z,-6.28
2022-12-13T07:38:36.616Z,-6.15
2022-12-13T07:39:36.641Z,-6.2
2022-12-13T07:40:36.856Z,-6.18
2022-12-13T07:41:36.760Z,-6.16
2022-12-13T07:42:36.636Z,-6.12
2022-12-13T07:43:36.645Z,-6.1
2022-12-13T07:44:36.658Z,-6.06
2022-12-13T07:45:36.644Z,-6.03
2022-12-13T07:46:38.675Z,-5.94
2022-12-13T07:47:36.624Z,-5.84
2022-12-13T07:48:36.655Z,-5.81
2022-12-13T07:49:36.688Z,-5.73
2022-12-13T07:50:42.313Z,-5.84
2022-12-13T07:51:36.632Z,-5.78
2022-12-13T07:52:36.648Z,-5.73
2022-12-13T07:53:38.646Z,-5.7
2022-12-13T07:54:36.895Z,-5.66
2022-12-13T07:55:38.445Z,-5.59
2022-12-13T07:56:36.654Z,-5.56
2022-12-13T07:57:36.667Z,-5.64
2022-12-13T07:58:36.636Z,-5.64
2022-12-13T07:59:36.725Z,-5.7
2022-12-13T08:00:40.831Z,-5.71
2022-12-13T08:01:37.428Z,-5.67
2022-12-13T08:02:36.660Z,-5.63
2022-12-13T08:03:36.676Z,-5.64
2022-12-13T08:04:42.883Z,-5.55
2022-12-13T08:05:43.714Z,-5.59
2022-12-13T08:06:36.660Z,-5.52
2022-12-13T08:07:36.679Z,-5.53
2022-12-13T08:08:36.939Z,-5.49
2022-12-13T08:09:36.707Z,-5.5
2022-12-13T08:10:36.682Z,-5.48
2022-12-13T08:11:39.721Z,-5.5
2022-12-13T08:12:36.677Z,-5.41
2022-12-13T08:13:36.760Z,-5.35
2022-12-13T08:14:36.711Z,-5.38
2022-12-13T08:15:36.766Z,-5.37
2022-12-13T08:16:37.020Z,-5.32
2022-12-13T08:17:36.693Z,-5.28
2022-12-13T08:18:36.718Z,-5.32
2022-12-13T08:19:36.724Z,-5.23
2022-12-13T08:20:36.779Z,-5.23
2022-12-13T08:22:01.925Z,-5.37
2022-12-13T08:22:42.565Z,-5.38
2022-12-13T08:23:36.712Z,-5.37
2022-12-13T08:24:36.870Z,-5.34
2022-12-13T08:25:36.701Z,-5.28
2022-12-13T08:26:36.694Z,-5.21
2022-12-13T08:27:47.485Z,-5.13
2022-12-13T08:28:36.767Z,-5.19
2022-12-13T08:29:39.291Z,-5.19
2022-12-13T08:30:37.130Z,-5.21
2022-12-13T08:31:38.846Z,-5.21
2022-12-13T08:32:36.719Z,-5.16
2022-12-13T08:33:39.795Z,-5.09
2022-12-13T08:34:36.738Z,-4.98
2022-12-13T08:35:39.293Z,-5.06
2022-12-13T08:36:36.713Z,-5
2022-12-13T08:37:36.711Z,-4.92
2022-12-13T08:38:39.575Z,-4.88
2022-12-13T08:39:39.817Z,-4.83
2022-12-13T08:40:36.717Z,-4.69
2022-12-13T08:41:41.987Z,-4.69
2022-12-13T08:42:36.776Z,-4.71
2022-12-13T08:43:36.746Z,-4.71
2022-12-13T08:44:39.629Z,-4.67
2022-12-13T08:45:36.768Z,-4.65
2022-12-13T08:46:36.961Z,-4.58
2022-12-13T08:47:44.503Z,-4.53
2022-12-13T08:48:46.096Z,-4.56
2022-12-13T08:49:38.488Z,-4.49
2022-12-13T08:50:36.770Z,-4.42
2022-12-13T08:51:40.357Z,-4.42
2022-12-13T08:52:45.244Z,-4.58
2022-12-13T08:53:46.228Z,-4.44
2022-12-13T08:54:36.779Z,-4.44
2022-12-13T08:55:40.050Z,-4.4
2022-12-13T08:56:36.754Z,-4.27
2022-12-13T08:57:37.827Z,-4.31
2022-12-13T08:58:36.757Z,-4.22
2022-12-13T08:59:36.776Z,-4.24
2022-12-13T09:00:40.759Z,-4.2
2022-12-13T09:01:36.824Z,-4.23
2022-12-13T09:02:43.019Z,-4.14
2022-12-13T09:03:36.794Z,-4.14
2022-12-13T09:04:37.215Z,-4.24
2022-12-13T09:05:39.564Z,-4.17
2022-12-13T09:06:36.778Z,-4.24
2022-12-13T09:07:36.772Z,-4.14
2022-12-13T09:08:39.934Z,-4.14
2022-12-13T09:09:39.384Z,-4.2
2022-12-13T09:10:43.023Z,-4.22
2022-12-13T09:11:44.759Z,-4.3
2022-12-13T09:12:46.758Z,-4.22
2022-12-13T09:13:45.510Z,-4.13
2022-12-13T09:14:38.454Z,-4.09
2022-12-13T09:15:48.243Z,-4.17
2022-12-13T09:16:40.872Z,-3.96
2022-12-13T09:17:44.884Z,-3.98
2022-12-13T09:18:41.209Z,-4.01
2022-12-13T09:19:42.338Z,-3.88
2022-12-13T09:20:45.679Z,-3.87
2022-12-13T09:21:45.335Z,-3.78
2022-12-13T09:22:47.488Z,-3.81
2022-12-13T09:23:48.604Z,-3.77
2022-12-13T09:24:41.414Z,-3.85
2022-12-13T09:25:43.947Z,-3.75
2022-12-13T09:26:43.202Z,-3.81
2022-12-13T09:27:44.419Z,-3.8
2022-12-13T09:28:36.830Z,-3.87
2022-12-13T09:29:36.806Z,-3.68
2022-12-13T09:30:36.898Z,-3.69
2022-12-13T09:31:36.951Z,-3.69
2022-12-13T09:32:36.831Z,-3.68
2022-12-13T09:33:45.879Z,-3.71
2022-12-13T09:34:37.048Z,-3.66
2022-12-13T09:35:36.873Z,-3.68
2022-12-13T09:36:36.824Z,-3.61
2022-12-13T09:37:39.904Z,-3.47
2022-12-13T09:38:40.297Z,-3.5
2022-12-13T09:39:36.876Z,-3.43
2022-12-13T09:40:42.618Z,-3.53
2022-12-13T09:41:43.023Z,-3.48
2022-12-13T09:42:36.830Z,-3.41
2022-12-13T09:43:48.590Z,-3.43
2022-12-13T09:45:02.426Z,-3.43
2022-12-13T09:45:45.237Z,-3.36
2022-12-13T09:46:48.796Z,-3.33
2022-12-13T09:47:49.243Z,-3.29
2022-12-13T09:48:39.584Z,-3.43
2022-12-13T09:49:40.196Z,-3.36
2022-12-13T09:51:16.798Z,-3.3
2022-12-13T09:52:24.418Z,-3.22
2022-12-13T09:52:53.843Z,-3.26
2022-12-13T09:53:53.845Z,-3.23
2022-12-13T09:54:54.158Z,-3.25
2022-12-13T09:55:53.831Z,-3.26
2022-12-13T09:56:53.817Z,-3.19
2022-12-13T09:57:53.808Z,-3.12
2022-12-13T09:58:53.849Z,-3.01
2022-12-13T10:00:01.170Z,-3.11
2022-12-13T10:00:53.945Z,-3.05
2022-12-13T10:01:56.961Z,-2.99
2022-12-13T10:02:53.818Z,-3.01
2022-12-13T10:03:53.867Z,-2.98
2022-12-13T10:04:53.852Z,-3.02
2022-12-13T10:05:53.933Z,-3.05
2022-12-13T10:06:53.875Z,-2.99
2022-12-13T10:07:53.854Z,-3.02
2022-12-13T10:09:01.722Z,-3.05
2022-12-13T10:09:53.842Z,-2.98
2022-12-13T10:10:53.865Z,-2.98
2022-12-13T10:11:55.438Z,-2.94
2022-12-13T10:12:56.624Z,-2.87
2022-12-13T10:13:53.847Z,-2.86
2022-12-13T10:14:53.826Z,-2.87
2022-12-13T10:15:53.862Z,-2.8
2022-12-13T10:16:54.216Z,-2.89
2022-12-13T10:18:00.115Z,-2.86
2022-12-13T10:18:53.885Z,-2.87
2022-12-13T10:19:53.868Z,-2.8
2022-12-13T10:20:54.463Z,-2.84
2022-12-13T10:21:53.894Z,-2.81
2022-12-13T10:24:45.505Z,-2.8
2022-12-13T10:25:44.147Z,-2.69
2022-12-13T10:26:44.222Z,-2.7
2022-12-13T10:27:44.034Z,-2.66
2022-12-13T10:28:43.995Z,-2.62
2022-12-13T10:29:44.015Z,-2.51
2022-12-13T10:30:46.346Z,-2.55
2022-12-13T10:31:44.386Z,-2.58
2022-12-13T10:32:44.032Z,-2.58
2022-12-13T10:33:46.832Z,-2.52
2022-12-13T10:34:44.250Z,-2.51
2022-12-13T10:35:43.984Z,-2.51
2022-12-13T10:36:44.036Z,-2.52
2022-12-13T10:37:44.034Z,-2.51
2022-12-13T10:38:44.051Z,-2.44
2022-12-13T10:39:44.038Z,-2.52
2022-12-13T10:40:44.038Z,-2.39
2022-12-13T10:41:44.032Z,-2.36
2022-12-13T10:42:44.051Z,-2.44
2022-12-13T10:43:44.051Z,-2.4
2022-12-13T10:44:47.100Z,-2.23
2022-12-13T10:45:44.239Z,-2.25
2022-12-13T10:46:44.115Z,-2.28
2022-12-13T10:47:44.028Z,-2.25
2022-12-13T10:48:44.143Z,-2.23
2022-12-13T10:49:44.026Z,-2.18
2022-12-13T10:50:44.162Z,-2.28
2022-12-13T10:51:44.052Z,-2.22
2022-12-13T10:52:48.433Z,-2.29
2022-12-13T10:53:51.976Z,-2.22
2022-12-13T10:54:53.411Z,-2.22
2022-12-13T10:55:46.839Z,-2.08
2022-12-13T10:56:44.084Z,-1.97
2022-12-13T10:57:44.058Z,-1.99
2022-12-13T10:58:44.046Z,-2.04
2022-12-13T10:59:44.064Z,-2.07
2022-12-13T11:00:44.040Z,-1.99
2022-12-13T11:01:44.279Z,-1.99
2022-12-13T11:02:44.558Z,-2.07
2022-12-13T11:03:44.038Z,-1.96
2022-12-13T11:04:44.045Z,-1.96
2022-12-13T11:05:44.058Z,-1.94
2022-12-13T11:06:48.767Z,-2.07
2022-12-13T11:07:44.113Z,-1.93
2022-12-13T11:08:44.091Z,-1.84
2022-12-13T11:09:44.107Z,-1.96
2022-12-13T11:10:44.112Z,-1.86
2022-12-13T11:11:44.089Z,-1.79
2022-12-13T11:12:44.077Z,-1.79
2022-12-13T11:13:44.069Z,-1.81
2022-12-13T11:14:48.189Z,-1.84
2022-12-13T11:15:44.076Z,-1.74
2022-12-13T11:16:44.340Z,-1.72
2022-12-13T11:17:47.217Z,-1.76
2022-12-13T11:18:44.074Z,-1.75
2022-12-13T11:19:44.483Z,-1.71
2022-12-13T11:20:44.063Z,-1.69
2022-12-13T11:21:44.115Z,-1.63
2022-12-13T11:22:44.120Z,-1.61
2022-12-13T11:23:44.083Z,-1.63
2022-12-13T11:24:44.105Z,-1.63
2022-12-13T11:25:44.109Z,-1.5
2022-12-13T11:26:44.157Z,-1.57
2022-12-13T11:27:44.071Z,-1.53
2022-12-13T11:28:45.512Z,-1.64
2022-12-13T11:29:47.619Z,-1.5
2022-12-13T11:30:44.098Z,-1.43
2022-12-13T11:31:44.402Z,-1.45
2022-12-13T11:32:44.154Z,-1.39
2022-12-13T11:33:53.193Z,-1.38
2022-12-13T11:34:44.107Z,-1.42
2022-12-13T11:35:44.104Z,-1.38
2022-12-13T11:36:44.132Z,-1.3
2022-12-13T11:37:44.092Z,-1.35
2022-12-13T11:38:44.108Z,-1.4
2022-12-13T11:39:47.190Z,-1.38
2022-12-13T11:40:44.172Z,-1.48
2022-12-13T11:41:44.138Z,-1.4
2022-12-13T11:42:44.137Z,-1.4
2022-12-13T11:43:44.109Z,-1.27
2022-12-13T11:44:52.346Z,-1.3
2022-12-13T11:45:44.361Z,-1.27
2022-12-13T11:46:44.152Z,-1.24
2022-12-13T11:47:44.139Z,-1.21
2022-12-13T11:48:44.171Z,-1.19
2022-12-13T11:49:44.112Z,-1.19
2022-12-13T11:50:47.418Z,-1.19
2022-12-13T11:51:44.145Z,-1.22
2022-12-13T11:52:44.120Z,-1.07
2022-12-13T11:53:44.135Z,-1.06
2022-12-13T11:54:44.126Z,-1.22
2022-12-13T11:55:47.035Z,-1.12
2022-12-13T11:56:44.140Z,-1.06
2022-12-13T11:57:44.137Z,-1.18
2022-12-13T11:59:22.234Z,-1.07
2022-12-13T11:59:45.309Z,-0.99
2022-12-13T12:00:44.571Z,-1.12
2022-12-13T12:01:47.708Z,-1.04
2022-12-13T12:02:44.705Z,-1.03
2022-12-13T12:03:45.009Z,-1.03
2022-12-13T12:04:44.583Z,-1
2022-12-13T12:05:44.563Z,-0.99
2022-12-13T12:06:47.654Z,-0.87
2022-12-13T12:08:46.055Z,-0.89
2022-12-13T12:08:56.472Z,-0.93
2022-12-13T12:09:57.456Z,-0.87
2022-12-13T12:10:56.470Z,-1.03
2022-12-13T12:11:56.516Z,-0.87
2022-12-13T12:12:59.509Z,-0.97
2022-12-13T12:13:56.881Z,-0.81
2022-12-13T12:14:56.918Z,-0.84
2022-12-13T12:16:00.052Z,-0.93
2022-12-13T12:16:56.491Z,-0.96
2022-12-13T12:17:59.318Z,-0.81
2022-12-13T12:19:05.410Z,-0.94
2022-12-13T12:19:56.733Z,-0.78
2022-12-13T12:20:56.486Z,-0.89
2022-12-13T12:22:27.024Z,-0.91
2022-12-13T12:22:56.492Z,-0.94
2022-12-13T12:24:00.300Z,-0.8
2022-12-13T12:24:56.469Z,-0.78
2022-12-13T12:25:56.509Z,-0.8
2022-12-13T12:26:56.542Z,-0.77
2022-12-13T12:27:56.468Z,-0.89
2022-12-13T12:29:04.154Z,-0.81
2022-12-13T12:29:56.461Z,-0.78
2022-12-13T12:30:56.649Z,-0.8
2022-12-13T12:31:56.556Z,-0.69
2022-12-13T12:32:56.489Z,-0.66
2022-12-13T12:33:56.501Z,-0.7
2022-12-13T12:34:59.493Z,-0.64
2022-12-13T12:35:56.487Z,-0.69
2022-12-13T12:36:56.536Z,-0.57
2022-12-13T12:37:56.495Z,-0.6
2022-12-13T12:38:56.491Z,-0.62
2022-12-13T12:39:59.545Z,-0.62
2022-12-13T12:41:20.796Z,-0.63
2022-12-13T12:42:02.477Z,-0.66
2022-12-13T12:43:19.565Z,-0.57
2022-12-13T12:43:56.541Z,-0.64
2022-12-13T12:44:56.513Z,-0.62
2022-12-13T12:46:03.293Z,-0.7
2022-12-13T12:48:50.773Z,-0.54
2022-12-13T12:49:12.256Z,-0.63
2022-12-13T12:50:10.479Z,-0.6
2022-12-13T12:51:10.374Z,-0.66
2022-12-13T12:52:10.385Z,-0.54
2022-12-13T12:53:12.518Z,-0.49
2022-12-13T12:54:10.375Z,-0.56
2022-12-13T12:55:10.402Z,-0.53
2022-12-13T12:56:10.396Z,-0.41
2022-12-13T12:57:10.379Z,-0.54
2022-12-13T12:58:13.479Z,-0.48
2022-12-13T12:59:10.766Z,-0.49
2022-12-13T13:00:10.493Z,-0.56